Pagina principale
METAR-TAF:

METAR-TAF

Aeroporti :

Aeroporto Internazionale di Larnaca

Larnaca, Cipro

latitudine: 34-53N, longitudine: 033-38E, altezza: 2 m

Osservazione

Il bollettino è stato emesso 17 minuti fa, alle 17:30 UTC
Vento 4 kt da nord-ovest, variando fra ovest e nord/nord-ovest
Temperature 25°C
Umidità 61%
Pressione 1012 hPa
Visibilità 10 km o più
nessuna nube inferiore a 1500 m e nessun cumulonembo

METAR: LCLK 191730Z 31004KT 260V330 CAVOK 25/17 Q1012 NOSIG

Ora: 20:47 (17:47 UTC)

Previsione

Il bollettino è stato emesso 17 minuti fa, alle 17:30 UTC
Previsione valida dal 19 alle 18 UTC al 20 alle 18 UTC
Vento 7 kt da nord-ovest
Visibilità 10 km o più
Poco nuvoloso ad un'altezza di 2500 ft
Probabilità 30%
dal 19 alle 18 UTC al 20 alle 18 UTC
Visibilità: 5000 m
polvere diffusa
Evoluzione graduale
dal 20 alle 09 UTC al 20 alle 13 UTC
Vento 10 kt da sud/sud-ovest

TAF: LCLK 191730Z 1918/2018 32007KT 9999 FEW025 PROB30 1918/2018 5000 DU BECMG 2009/2013 20010KT

Osservazioni e previsioni meteorologiche di più di 4000 aeroporti (messaggi METAR e TAF).

Le stazioni disponibili sono rappresentate dai dischi gialli e rossi sulla carta.

Puntare il mouse per vedere il nome della stazione.

Clicca sopra per visualizzare le osservazioni e previsioni meteorologiche.

Per cambiare la mappa : fare clic sui pulsanti verdi con una croce nera per ingrandire, il pulsante verde con un trattino per diminuire, o sulla freccia verde per le mappe adiacenti.


METAR-TAF: